sensor_id;sensor_type;location;lat;lon;timestamp;P1;durP1;ratioP1;P2;durP2;ratioP2
36315;SDS011;22343;50.820;2.666;2023-06-05T00:01:44;12.73;;;7.30;;
36315;SDS011;22343;50.820;2.666;2023-06-05T00:04:30;13.83;;;6.87;;
36315;SDS011;22343;50.820;2.666;2023-06-05T00:07:16;13.23;;;7.53;;
36315;SDS011;22343;50.820;2.666;2023-06-05T00:10:02;12.33;;;7.03;;
36315;SDS011;22343;50.820;2.666;2023-06-05T00:12:46;14.67;;;7.30;;
36315;SDS011;22343;50.820;2.666;2023-06-05T00:15:32;14.53;;;7.23;;
36315;SDS011;22343;50.820;2.666;2023-06-05T00:18:20;13.13;;;7.33;;
36315;SDS011;22343;50.820;2.666;2023-06-05T00:21:05;15.43;;;7.70;;
36315;SDS011;22343;50.820;2.666;2023-06-05T00:23:50;11.23;;;7.70;;
36315;SDS011;22343;50.820;2.666;2023-06-05T00:26:36;10.30;;;7.23;;
36315;SDS011;22343;50.820;2.666;2023-06-05T00:29:21;13.63;;;7.73;;
36315;SDS011;22343;50.820;2.666;2023-06-05T00:32:07;12.93;;;7.63;;
36315;SDS011;22343;50.820;2.666;2023-06-05T00:34:53;17.43;;;7.60;;
36315;SDS011;22343;50.820;2.666;2023-06-05T00:37:39;13.50;;;7.90;;
36315;SDS011;22343;50.820;2.666;2023-06-05T00:40:24;15.00;;;7.93;;
36315;SDS011;22343;50.820;2.666;2023-06-05T00:43:10;14.73;;;8.20;;
36315;SDS011;22343;50.820;2.666;2023-06-05T00:45:57;12.50;;;8.50;;
36315;SDS011;22343;50.820;2.666;2023-06-05T00:48:45;13.17;;;7.50;;
36315;SDS011;22343;50.820;2.666;2023-06-05T00:51:33;13.30;;;7.77;;
36315;SDS011;22343;50.820;2.666;2023-06-05T00:54:18;12.00;;;7.13;;
36315;SDS011;22343;50.820;2.666;2023-06-05T00:57:05;12.37;;;7.60;;
36315;SDS011;22343;50.820;2.666;2023-06-05T00:59:51;13.53;;;7.53;;
36315;SDS011;22343;50.820;2.666;2023-06-05T01:02:38;14.93;;;7.57;;
36315;SDS011;22343;50.820;2.666;2023-06-05T01:05:24;14.90;;;7.53;;
36315;SDS011;22343;50.820;2.666;2023-06-05T01:08:11;14.50;;;8.00;;
36315;SDS011;22343;50.820;2.666;2023-06-05T01:10:57;14.80;;;8.10;;
36315;SDS011;22343;50.820;2.666;2023-06-05T01:13:46;13.20;;;8.03;;
36315;SDS011;22343;50.820;2.666;2023-06-05T01:16:37;15.23;;;7.93;;
36315;SDS011;22343;50.820;2.666;2023-06-05T01:19:23;13.37;;;8.17;;
36315;SDS011;22343;50.820;2.666;2023-06-05T01:22:14;12.70;;;7.67;;
36315;SDS011;22343;50.820;2.666;2023-06-05T01:25:00;16.77;;;8.07;;
36315;SDS011;22343;50.820;2.666;2023-06-05T01:27:54;16.67;;;8.43;;
36315;SDS011;22343;50.820;2.666;2023-06-05T01:30:51;13.67;;;7.47;;
36315;SDS011;22343;50.820;2.666;2023-06-05T01:33:50;12.77;;;7.53;;
36315;SDS011;22343;50.820;2.666;2023-06-05T01:36:42;15.17;;;7.40;;
36315;SDS011;22343;50.820;2.666;2023-06-05T01:39:28;12.27;;;7.53;;
36315;SDS011;22343;50.820;2.666;2023-06-05T01:42:15;14.43;;;7.60;;
36315;SDS011;22343;50.820;2.666;2023-06-05T01:45:01;12.67;;;7.10;;
36315;SDS011;22343;50.820;2.666;2023-06-05T01:47:47;13.37;;;7.40;;
36315;SDS011;22343;50.820;2.666;2023-06-05T01:50:33;10.60;;;6.83;;
36315;SDS011;22343;50.820;2.666;2023-06-05T01:53:19;13.07;;;7.00;;
36315;SDS011;22343;50.820;2.666;2023-06-05T01:56:05;12.13;;;7.73;;
36315;SDS011;22343;50.820;2.666;2023-06-05T01:58:53;14.77;;;7.97;;
36315;SDS011;22343;50.820;2.666;2023-06-05T02:01:39;13.27;;;8.50;;
36315;SDS011;22343;50.820;2.666;2023-06-05T02:04:24;14.60;;;7.87;;
36315;SDS011;22343;50.820;2.666;2023-06-05T02:07:12;13.90;;;8.60;;
36315;SDS011;22343;50.820;2.666;2023-06-05T02:09:59;16.80;;;8.57;;
36315;SDS011;22343;50.820;2.666;2023-06-05T02:12:46;11.73;;;8.07;;
36315;SDS011;22343;50.820;2.666;2023-06-05T02:15:32;13.03;;;8.13;;
36315;SDS011;22343;50.820;2.666;2023-06-05T02:18:19;15.97;;;8.23;;
36315;SDS011;22343;50.820;2.666;2023-06-05T02:21:06;16.80;;;8.43;;
36315;SDS011;22343;50.820;2.666;2023-06-05T02:23:51;12.30;;;8.57;;
36315;SDS011;22343;50.820;2.666;2023-06-05T02:26:39;13.37;;;7.57;;
36315;SDS011;22343;50.820;2.666;2023-06-05T02:29:25;13.60;;;8.40;;
36315;SDS011;22343;50.820;2.666;2023-06-05T02:32:11;16.50;;;8.30;;
36315;SDS011;22343;50.820;2.666;2023-06-05T02:34:56;11.83;;;8.13;;
36315;SDS011;22343;50.820;2.666;2023-06-05T02:37:42;15.50;;;7.73;;
36315;SDS011;22343;50.820;2.666;2023-06-05T02:40:31;16.17;;;8.83;;
36315;SDS011;22343;50.820;2.666;2023-06-05T02:43:17;12.33;;;8.30;;
36315;SDS011;22343;50.820;2.666;2023-06-05T02:46:05;15.60;;;9.07;;
36315;SDS011;22343;50.820;2.666;2023-06-05T02:48:50;17.80;;;9.47;;
36315;SDS011;22343;50.820;2.666;2023-06-05T02:51:36;16.83;;;8.40;;
36315;SDS011;22343;50.820;2.666;2023-06-05T02:54:21;15.37;;;7.87;;
36315;SDS011;22343;50.820;2.666;2023-06-05T02:57:07;15.87;;;8.30;;
36315;SDS011;22343;50.820;2.666;2023-06-05T02:59:52;14.60;;;8.30;;
36315;SDS011;22343;50.820;2.666;2023-06-05T03:02:39;14.20;;;8.73;;
36315;SDS011;22343;50.820;2.666;2023-06-05T03:05:24;15.47;;;9.13;;
36315;SDS011;22343;50.820;2.666;2023-06-05T03:08:10;14.60;;;8.70;;
36315;SDS011;22343;50.820;2.666;2023-06-05T03:10:56;14.27;;;9.33;;
36315;SDS011;22343;50.820;2.666;2023-06-05T03:13:41;13.57;;;8.83;;
36315;SDS011;22343;50.820;2.666;2023-06-05T03:16:27;15.90;;;8.93;;
36315;SDS011;22343;50.820;2.666;2023-06-05T03:19:19;13.03;;;8.37;;
36315;SDS011;22343;50.820;2.666;2023-06-05T03:22:05;13.93;;;8.57;;
36315;SDS011;22343;50.820;2.666;2023-06-05T03:24:51;13.43;;;8.20;;
36315;SDS011;22343;50.820;2.666;2023-06-05T03:27:37;15.17;;;8.83;;
36315;SDS011;22343;50.820;2.666;2023-06-05T03:30:22;18.90;;;9.27;;
36315;SDS011;22343;50.820;2.666;2023-06-05T03:33:07;16.57;;;9.60;;
36315;SDS011;22343;50.820;2.666;2023-06-05T03:35:53;14.00;;;9.33;;
36315;SDS011;22343;50.820;2.666;2023-06-05T03:38:41;13.23;;;8.87;;
36315;SDS011;22343;50.820;2.666;2023-06-05T03:41:26;16.80;;;9.47;;
36315;SDS011;22343;50.820;2.666;2023-06-05T03:44:12;18.67;;;10.63;;
36315;SDS011;22343;50.820;2.666;2023-06-05T03:46:58;17.03;;;9.37;;
36315;SDS011;22343;50.820;2.666;2023-06-05T03:49:42;15.57;;;9.13;;
36315;SDS011;22343;50.820;2.666;2023-06-05T03:52:29;16.10;;;9.33;;
36315;SDS011;22343;50.820;2.666;2023-06-05T03:55:15;16.80;;;9.10;;
36315;SDS011;22343;50.820;2.666;2023-06-05T03:58:00;15.97;;;8.67;;
36315;SDS011;22343;50.820;2.666;2023-06-05T04:00:48;14.80;;;8.70;;
36315;SDS011;22343;50.820;2.666;2023-06-05T04:03:37;15.90;;;8.97;;
36315;SDS011;22343;50.820;2.666;2023-06-05T04:06:23;12.60;;;7.97;;
36315;SDS011;22343;50.820;2.666;2023-06-05T04:09:07;15.20;;;8.37;;
36315;SDS011;22343;50.820;2.666;2023-06-05T04:11:58;14.53;;;8.10;;
36315;SDS011;22343;50.820;2.666;2023-06-05T04:14:42;12.33;;;7.13;;
36315;SDS011;22343;50.820;2.666;2023-06-05T04:17:30;13.73;;;7.60;;
36315;SDS011;22343;50.820;2.666;2023-06-05T04:20:15;11.87;;;7.13;;
36315;SDS011;22343;50.820;2.666;2023-06-05T04:23:01;12.33;;;7.77;;
36315;SDS011;22343;50.820;2.666;2023-06-05T04:25:47;11.80;;;6.90;;
36315;SDS011;22343;50.820;2.666;2023-06-05T04:28:33;16.33;;;7.80;;
36315;SDS011;22343;50.820;2.666;2023-06-05T04:31:20;12.57;;;7.13;;
36315;SDS011;22343;50.820;2.666;2023-06-05T04:34:05;10.43;;;6.83;;
36315;SDS011;22343;50.820;2.666;2023-06-05T04:36:52;14.60;;;7.43;;
36315;SDS011;22343;50.820;2.666;2023-06-05T04:39:38;10.53;;;7.03;;
36315;SDS011;22343;50.820;2.666;2023-06-05T04:42:27;12.10;;;6.83;;
36315;SDS011;22343;50.820;2.666;2023-06-05T04:45:13;11.00;;;6.83;;
36315;SDS011;22343;50.820;2.666;2023-06-05T04:47:58;13.23;;;7.00;;
36315;SDS011;22343;50.820;2.666;2023-06-05T04:50:44;12.33;;;6.70;;
36315;SDS011;22343;50.820;2.666;2023-06-05T04:53:29;10.20;;;7.10;;
36315;SDS011;22343;50.820;2.666;2023-06-05T04:56:16;11.63;;;6.30;;
36315;SDS011;22343;50.820;2.666;2023-06-05T04:59:02;12.40;;;6.90;;
36315;SDS011;22343;50.820;2.666;2023-06-05T05:01:48;14.67;;;7.60;;
36315;SDS011;22343;50.820;2.666;2023-06-05T05:04:34;13.93;;;6.97;;
36315;SDS011;22343;50.820;2.666;2023-06-05T05:07:20;11.93;;;7.07;;
36315;SDS011;22343;50.820;2.666;2023-06-05T05:10:08;11.23;;;7.33;;
36315;SDS011;22343;50.820;2.666;2023-06-05T05:12:55;13.03;;;7.00;;
36315;SDS011;22343;50.820;2.666;2023-06-05T05:15:40;10.40;;;6.17;;
36315;SDS011;22343;50.820;2.666;2023-06-05T05:18:25;13.43;;;7.23;;
36315;SDS011;22343;50.820;2.666;2023-06-05T05:21:11;11.57;;;7.53;;
36315;SDS011;22343;50.820;2.666;2023-06-05T05:23:57;13.20;;;7.87;;
36315;SDS011;22343;50.820;2.666;2023-06-05T05:26:43;14.73;;;7.67;;
36315;SDS011;22343;50.820;2.666;2023-06-05T05:29:27;12.33;;;6.50;;
36315;SDS011;22343;50.820;2.666;2023-06-05T05:32:13;12.23;;;7.23;;
36315;SDS011;22343;50.820;2.666;2023-06-05T05:34:58;11.33;;;7.60;;
36315;SDS011;22343;50.820;2.666;2023-06-05T05:37:44;11.67;;;7.23;;
36315;SDS011;22343;50.820;2.666;2023-06-05T05:40:29;13.40;;;7.20;;
36315;SDS011;22343;50.820;2.666;2023-06-05T05:43:16;15.83;;;8.07;;
36315;SDS011;22343;50.820;2.666;2023-06-05T05:46:02;14.40;;;8.10;;
36315;SDS011;22343;50.820;2.666;2023-06-05T05:48:47;12.77;;;7.80;;
36315;SDS011;22343;50.820;2.666;2023-06-05T05:51:32;11.83;;;7.67;;
36315;SDS011;22343;50.820;2.666;2023-06-05T05:54:19;16.40;;;8.47;;
36315;SDS011;22343;50.820;2.666;2023-06-05T05:57:05;12.43;;;7.33;;
36315;SDS011;22343;50.820;2.666;2023-06-05T05:59:51;14.63;;;8.27;;
36315;SDS011;22343;50.820;2.666;2023-06-05T06:02:36;13.50;;;8.47;;
36315;SDS011;22343;50.820;2.666;2023-06-05T06:05:22;11.90;;;8.13;;
36315;SDS011;22343;50.820;2.666;2023-06-05T06:08:07;11.90;;;7.13;;
36315;SDS011;22343;50.820;2.666;2023-06-05T06:10:53;14.73;;;8.47;;
36315;SDS011;22343;50.820;2.666;2023-06-05T06:13:40;13.93;;;8.53;;
36315;SDS011;22343;50.820;2.666;2023-06-05T06:16:26;10.07;;;6.90;;
36315;SDS011;22343;50.820;2.666;2023-06-05T06:19:12;11.83;;;7.93;;
36315;SDS011;22343;50.820;2.666;2023-06-05T06:21:59;10.03;;;7.80;;
36315;SDS011;22343;50.820;2.666;2023-06-05T06:24:45;13.50;;;8.43;;
36315;SDS011;22343;50.820;2.666;2023-06-05T06:27:30;12.23;;;8.03;;
36315;SDS011;22343;50.820;2.666;2023-06-05T06:30:16;12.00;;;8.27;;
36315;SDS011;22343;50.820;2.666;2023-06-05T06:33:02;9.90;;;5.73;;
36315;SDS011;22343;50.820;2.666;2023-06-05T06:35:48;11.83;;;7.73;;
36315;SDS011;22343;50.820;2.666;2023-06-05T06:38:33;10.33;;;7.33;;
36315;SDS011;22343;50.820;2.666;2023-06-05T06:41:17;10.57;;;7.40;;
36315;SDS011;22343;50.820;2.666;2023-06-05T06:44:02;10.50;;;8.00;;
36315;SDS011;22343;50.820;2.666;2023-06-05T06:46:47;12.60;;;8.10;;
36315;SDS011;22343;50.820;2.666;2023-06-05T06:49:32;11.77;;;8.07;;
36315;SDS011;22343;50.820;2.666;2023-06-05T06:52:18;11.00;;;7.30;;
36315;SDS011;22343;50.820;2.666;2023-06-05T06:55:04;10.57;;;7.23;;
36315;SDS011;22343;50.820;2.666;2023-06-05T06:57:51;10.63;;;7.10;;
36315;SDS011;22343;50.820;2.666;2023-06-05T07:00:37;10.18;;;7.38;;
36315;SDS011;22343;50.820;2.666;2023-06-05T07:03:22;9.90;;;6.43;;
36315;SDS011;22343;50.820;2.666;2023-06-05T07:06:12;9.50;;;6.97;;
36315;SDS011;22343;50.820;2.666;2023-06-05T07:08:57;8.10;;;7.23;;
36315;SDS011;22343;50.820;2.666;2023-06-05T07:11:44;9.73;;;7.15;;
36315;SDS011;22343;50.820;2.666;2023-06-05T07:14:30;7.22;;;6.07;;
36315;SDS011;22343;50.820;2.666;2023-06-05T07:17:17;10.27;;;7.68;;
36315;SDS011;22343;50.820;2.666;2023-06-05T07:20:02;13.65;;;7.40;;
36315;SDS011;22343;50.820;2.666;2023-06-05T07:22:50;11.10;;;7.53;;
36315;SDS011;22343;50.820;2.666;2023-06-05T07:25:36;8.73;;;6.72;;
36315;SDS011;22343;50.820;2.666;2023-06-05T07:28:23;10.00;;;6.18;;
36315;SDS011;22343;50.820;2.666;2023-06-05T07:31:09;11.65;;;7.60;;
36315;SDS011;22343;50.820;2.666;2023-06-05T07:33:55;9.82;;;7.03;;
36315;SDS011;22343;50.820;2.666;2023-06-05T07:36:39;9.38;;;7.18;;
36315;SDS011;22343;50.820;2.666;2023-06-05T07:39:25;12.05;;;8.40;;
36315;SDS011;22343;50.820;2.666;2023-06-05T07:42:11;10.82;;;7.35;;
36315;SDS011;22343;50.820;2.666;2023-06-05T07:44:56;10.25;;;7.53;;
36315;SDS011;22343;50.820;2.666;2023-06-05T07:47:41;9.88;;;7.10;;
36315;SDS011;22343;50.820;2.666;2023-06-05T07:50:26;9.45;;;6.80;;
36315;SDS011;22343;50.820;2.666;2023-06-05T07:53:12;9.57;;;8.13;;
36315;SDS011;22343;50.820;2.666;2023-06-05T07:55:56;9.00;;;7.30;;
36315;SDS011;22343;50.820;2.666;2023-06-05T07:58:41;9.52;;;7.30;;
36315;SDS011;22343;50.820;2.666;2023-06-05T08:01:27;9.00;;;7.20;;
36315;SDS011;22343;50.820;2.666;2023-06-05T08:04:12;8.52;;;7.15;;
36315;SDS011;22343;50.820;2.666;2023-06-05T08:07:00;11.10;;;6.93;;
36315;SDS011;22343;50.820;2.666;2023-06-05T08:09:46;10.75;;;7.32;;
36315;SDS011;22343;50.820;2.666;2023-06-05T08:12:31;8.85;;;6.47;;
36315;SDS011;22343;50.820;2.666;2023-06-05T08:15:16;9.18;;;6.28;;
36315;SDS011;22343;50.820;2.666;2023-06-05T08:18:02;8.27;;;6.57;;
36315;SDS011;22343;50.820;2.666;2023-06-05T08:20:48;9.98;;;6.95;;
36315;SDS011;22343;50.820;2.666;2023-06-05T08:23:33;9.88;;;6.68;;
36315;SDS011;22343;50.820;2.666;2023-06-05T08:26:20;9.40;;;7.03;;
36315;SDS011;22343;50.820;2.666;2023-06-05T08:29:07;9.23;;;6.47;;
36315;SDS011;22343;50.820;2.666;2023-06-05T08:31:51;11.40;;;7.57;;
36315;SDS011;22343;50.820;2.666;2023-06-05T08:34:37;9.43;;;6.93;;
36315;SDS011;22343;50.820;2.666;2023-06-05T08:37:23;9.32;;;7.38;;
36315;SDS011;22343;50.820;2.666;2023-06-05T08:40:08;8.82;;;7.30;;
36315;SDS011;22343;50.820;2.666;2023-06-05T08:42:56;8.65;;;6.75;;
36315;SDS011;22343;50.820;2.666;2023-06-05T08:45:42;7.75;;;6.80;;
36315;SDS011;22343;50.820;2.666;2023-06-05T08:48:26;9.57;;;7.13;;
36315;SDS011;22343;50.820;2.666;2023-06-05T08:51:15;9.48;;;7.28;;
36315;SDS011;22343;50.820;2.666;2023-06-05T08:54:02;8.25;;;6.45;;
36315;SDS011;22343;50.820;2.666;2023-06-05T08:56:48;8.70;;;6.90;;
36315;SDS011;22343;50.820;2.666;2023-06-05T08:59:33;11.82;;;6.82;;
36315;SDS011;22343;50.820;2.666;2023-06-05T09:02:21;10.35;;;6.75;;
36315;SDS011;22343;50.820;2.666;2023-06-05T09:05:06;8.38;;;6.60;;
36315;SDS011;22343;50.820;2.666;2023-06-05T09:07:52;8.25;;;7.30;;
36315;SDS011;22343;50.820;2.666;2023-06-05T09:10:36;9.48;;;7.15;;
36315;SDS011;22343;50.820;2.666;2023-06-05T09:13:21;9.57;;;7.13;;
36315;SDS011;22343;50.820;2.666;2023-06-05T09:16:08;9.88;;;6.82;;
36315;SDS011;22343;50.820;2.666;2023-06-05T09:18:54;7.05;;;5.90;;
36315;SDS011;22343;50.820;2.666;2023-06-05T09:21:40;8.63;;;7.00;;
36315;SDS011;22343;50.820;2.666;2023-06-05T09:24:39;10.05;;;6.88;;
36315;SDS011;22343;50.820;2.666;2023-06-05T09:27:27;7.38;;;5.80;;
36315;SDS011;22343;50.820;2.666;2023-06-05T09:30:12;11.27;;;7.38;;
36315;SDS011;22343;50.820;2.666;2023-06-05T09:33:10;9.70;;;7.07;;
36315;SDS011;22343;50.820;2.666;2023-06-05T09:36:05;10.52;;;6.78;;
36315;SDS011;22343;50.820;2.666;2023-06-05T09:38:54;10.20;;;6.95;;
36315;SDS011;22343;50.820;2.666;2023-06-05T09:41:44;11.70;;;7.38;;
36315;SDS011;22343;50.820;2.666;2023-06-05T09:44:31;10.65;;;6.20;;
36315;SDS011;22343;50.820;2.666;2023-06-05T09:47:18;9.85;;;6.10;;
36315;SDS011;22343;50.820;2.666;2023-06-05T09:50:08;9.70;;;7.10;;
36315;SDS011;22343;50.820;2.666;2023-06-05T09:53:06;11.07;;;7.25;;
36315;SDS011;22343;50.820;2.666;2023-06-05T09:55:52;9.40;;;6.95;;
36315;SDS011;22343;50.820;2.666;2023-06-05T09:58:37;9.77;;;7.50;;
36315;SDS011;22343;50.820;2.666;2023-06-05T10:01:23;11.55;;;8.20;;
36315;SDS011;22343;50.820;2.666;2023-06-05T10:04:09;8.45;;;6.93;;
36315;SDS011;22343;50.820;2.666;2023-06-05T10:06:55;9.65;;;7.82;;
36315;SDS011;22343;50.820;2.666;2023-06-05T10:09:48;9.30;;;6.72;;
36315;SDS011;22343;50.820;2.666;2023-06-05T10:12:33;9.90;;;6.90;;
36315;SDS011;22343;50.820;2.666;2023-06-05T10:15:18;9.73;;;7.82;;
36315;SDS011;22343;50.820;2.666;2023-06-05T10:18:06;11.20;;;7.90;;
36315;SDS011;22343;50.820;2.666;2023-06-05T10:20:51;9.00;;;7.05;;
36315;SDS011;22343;50.820;2.666;2023-06-05T10:23:38;12.35;;;8.35;;
36315;SDS011;22343;50.820;2.666;2023-06-05T10:33:17;11.93;;;8.50;;
36315;SDS011;22343;50.820;2.666;2023-06-05T10:36:27;11.52;;;8.02;;
36315;SDS011;22343;50.820;2.666;2023-06-05T10:39:19;11.52;;;7.00;;
36315;SDS011;22343;50.820;2.666;2023-06-05T10:42:06;10.55;;;8.35;;
36315;SDS011;22343;50.820;2.666;2023-06-05T10:44:52;10.43;;;8.05;;
36315;SDS011;22343;50.820;2.666;2023-06-05T10:50:24;11.73;;;8.73;;
36315;SDS011;22343;50.820;2.666;2023-06-05T10:53:41;10.57;;;8.10;;
36315;SDS011;22343;50.820;2.666;2023-06-05T10:59:37;11.43;;;8.07;;
36315;SDS011;22343;50.820;2.666;2023-06-05T11:02:23;10.65;;;7.05;;
36315;SDS011;22343;50.820;2.666;2023-06-05T11:05:07;9.70;;;7.82;;
36315;SDS011;22343;50.820;2.666;2023-06-05T11:14:03;10.18;;;6.47;;
36315;SDS011;22343;50.820;2.666;2023-06-05T11:16:51;10.30;;;7.60;;
36315;SDS011;22343;50.820;2.666;2023-06-05T11:19:36;8.48;;;6.97;;
36315;SDS011;22343;50.820;2.666;2023-06-05T11:22:20;10.98;;;7.13;;
36315;SDS011;22343;50.820;2.666;2023-06-05T11:28:00;10.15;;;7.22;;
36315;SDS011;22343;50.820;2.666;2023-06-05T11:30:51;9.13;;;6.38;;
36315;SDS011;22343;50.820;2.666;2023-06-05T11:33:35;8.10;;;5.90;;
36315;SDS011;22343;50.820;2.666;2023-06-05T11:36:20;10.10;;;7.60;;
36315;SDS011;22343;50.820;2.666;2023-06-05T11:39:08;7.57;;;6.05;;
36315;SDS011;22343;50.820;2.666;2023-06-05T11:41:54;10.15;;;7.32;;
36315;SDS011;22343;50.820;2.666;2023-06-05T11:44:38;8.63;;;6.15;;
36315;SDS011;22343;50.820;2.666;2023-06-05T11:47:23;11.60;;;7.18;;
36315;SDS011;22343;50.820;2.666;2023-06-05T11:50:09;9.40;;;6.25;;
36315;SDS011;22343;50.820;2.666;2023-06-05T11:53:02;7.82;;;6.18;;
36315;SDS011;22343;50.820;2.666;2023-06-05T11:55:51;8.05;;;7.05;;
36315;SDS011;22343;50.820;2.666;2023-06-05T11:58:37;10.05;;;6.65;;
36315;SDS011;22343;50.820;2.666;2023-06-05T12:01:23;10.35;;;6.32;;
36315;SDS011;22343;50.820;2.666;2023-06-05T12:04:09;9.25;;;6.85;;
36315;SDS011;22343;50.820;2.666;2023-06-05T12:06:54;9.90;;;6.88;;
36315;SDS011;22343;50.820;2.666;2023-06-05T12:09:39;9.65;;;6.20;;
36315;SDS011;22343;50.820;2.666;2023-06-05T12:12:24;7.57;;;5.78;;
36315;SDS011;22343;50.820;2.666;2023-06-05T12:15:16;10.65;;;6.60;;
36315;SDS011;22343;50.820;2.666;2023-06-05T12:18:00;9.43;;;6.32;;
36315;SDS011;22343;50.820;2.666;2023-06-05T12:20:45;9.50;;;6.15;;
36315;SDS011;22343;50.820;2.666;2023-06-05T12:23:29;8.95;;;5.25;;
36315;SDS011;22343;50.820;2.666;2023-06-05T12:26:17;8.35;;;5.35;;
36315;SDS011;22343;50.820;2.666;2023-06-05T12:29:03;9.02;;;5.15;;
36315;SDS011;22343;50.820;2.666;2023-06-05T12:31:51;8.40;;;5.63;;
36315;SDS011;22343;50.820;2.666;2023-06-05T12:37:39;7.60;;;5.55;;
36315;SDS011;22343;50.820;2.666;2023-06-05T12:40:29;8.02;;;5.78;;
36315;SDS011;22343;50.820;2.666;2023-06-05T12:43:17;7.15;;;5.13;;
36315;SDS011;22343;50.820;2.666;2023-06-05T12:46:04;7.72;;;6.53;;
36315;SDS011;22343;50.820;2.666;2023-06-05T12:48:51;9.70;;;6.03;;
36315;SDS011;22343;50.820;2.666;2023-06-05T12:51:35;7.95;;;5.82;;
36315;SDS011;22343;50.820;2.666;2023-06-05T12:54:22;10.10;;;6.07;;
36315;SDS011;22343;50.820;2.666;2023-06-05T12:57:08;10.07;;;6.10;;
36315;SDS011;22343;50.820;2.666;2023-06-05T12:59:55;7.75;;;5.75;;
36315;SDS011;22343;50.820;2.666;2023-06-05T13:02:43;6.60;;;5.80;;
36315;SDS011;22343;50.820;2.666;2023-06-05T13:05:30;7.97;;;5.30;;
36315;SDS011;22343;50.820;2.666;2023-06-05T13:08:18;9.43;;;5.70;;
36315;SDS011;22343;50.820;2.666;2023-06-05T13:11:02;5.60;;;5.10;;
36315;SDS011;22343;50.820;2.666;2023-06-05T13:13:47;7.55;;;5.60;;
36315;SDS011;22343;50.820;2.666;2023-06-05T13:16:31;9.32;;;6.30;;
36315;SDS011;22343;50.820;2.666;2023-06-05T13:19:16;9.35;;;6.22;;
36315;SDS011;22343;50.820;2.666;2023-06-05T13:22:00;7.93;;;6.10;;
36315;SDS011;22343;50.820;2.666;2023-06-05T13:24:45;8.30;;;5.90;;
36315;SDS011;22343;50.820;2.666;2023-06-05T13:27:30;10.93;;;7.50;;
36315;SDS011;22343;50.820;2.666;2023-06-05T13:30:14;9.80;;;7.13;;
36315;SDS011;22343;50.820;2.666;2023-06-05T13:32:59;8.43;;;6.53;;
36315;SDS011;22343;50.820;2.666;2023-06-05T13:35:43;9.20;;;7.68;;
36315;SDS011;22343;50.820;2.666;2023-06-05T13:38:28;9.73;;;6.22;;
36315;SDS011;22343;50.820;2.666;2023-06-05T13:41:12;12.00;;;7.90;;
36315;SDS011;22343;50.820;2.666;2023-06-05T13:43:57;11.07;;;7.28;;
36315;SDS011;22343;50.820;2.666;2023-06-05T13:46:41;12.98;;;7.97;;
36315;SDS011;22343;50.820;2.666;2023-06-05T13:49:27;13.52;;;8.75;;
36315;SDS011;22343;50.820;2.666;2023-06-05T13:52:11;13.02;;;8.52;;
36315;SDS011;22343;50.820;2.666;2023-06-05T13:54:56;12.55;;;8.60;;
36315;SDS011;22343;50.820;2.666;2023-06-05T13:57:41;11.45;;;8.18;;
36315;SDS011;22343;50.820;2.666;2023-06-05T14:00:25;12.57;;;8.25;;
36315;SDS011;22343;50.820;2.666;2023-06-05T14:03:12;9.15;;;6.28;;
36315;SDS011;22343;50.820;2.666;2023-06-05T14:05:56;11.18;;;8.15;;
36315;SDS011;22343;50.820;2.666;2023-06-05T14:08:41;10.25;;;8.35;;
36315;SDS011;22343;50.820;2.666;2023-06-05T14:11:25;11.60;;;9.00;;
36315;SDS011;22343;50.820;2.666;2023-06-05T14:14:10;13.43;;;7.85;;
36315;SDS011;22343;50.820;2.666;2023-06-05T14:16:55;11.27;;;7.72;;
36315;SDS011;22343;50.820;2.666;2023-06-05T14:19:39;11.70;;;8.02;;
36315;SDS011;22343;50.820;2.666;2023-06-05T14:22:23;13.45;;;8.13;;
36315;SDS011;22343;50.820;2.666;2023-06-05T14:25:08;12.20;;;7.57;;
36315;SDS011;22343;50.820;2.666;2023-06-05T14:27:54;14.93;;;8.05;;
36315;SDS011;22343;50.820;2.666;2023-06-05T14:30:39;12.18;;;6.80;;
36315;SDS011;22343;50.820;2.666;2023-06-05T14:33:24;10.23;;;6.60;;
36315;SDS011;22343;50.820;2.666;2023-06-05T14:36:08;11.18;;;7.95;;
36315;SDS011;22343;50.820;2.666;2023-06-05T14:38:53;12.50;;;7.85;;
36315;SDS011;22343;50.820;2.666;2023-06-05T14:41:37;12.52;;;7.90;;
36315;SDS011;22343;50.820;2.666;2023-06-05T14:44:21;10.43;;;7.72;;
36315;SDS011;22343;50.820;2.666;2023-06-05T14:47:06;10.02;;;8.10;;
36315;SDS011;22343;50.820;2.666;2023-06-05T14:49:50;11.73;;;7.22;;
36315;SDS011;22343;50.820;2.666;2023-06-05T14:52:35;9.50;;;6.55;;
36315;SDS011;22343;50.820;2.666;2023-06-05T14:55:19;13.68;;;6.28;;
36315;SDS011;22343;50.820;2.666;2023-06-05T14:58:05;10.43;;;7.72;;
36315;SDS011;22343;50.820;2.666;2023-06-05T15:00:53;11.48;;;7.55;;
36315;SDS011;22343;50.820;2.666;2023-06-05T15:03:39;9.60;;;6.55;;
36315;SDS011;22343;50.820;2.666;2023-06-05T15:06:24;10.02;;;7.43;;
36315;SDS011;22343;50.820;2.666;2023-06-05T15:09:08;12.35;;;7.85;;
36315;SDS011;22343;50.820;2.666;2023-06-05T15:11:54;12.00;;;7.82;;
36315;SDS011;22343;50.820;2.666;2023-06-05T15:14:41;10.50;;;7.75;;
36315;SDS011;22343;50.820;2.666;2023-06-05T15:17:27;9.60;;;7.20;;
36315;SDS011;22343;50.820;2.666;2023-06-05T15:20:12;8.63;;;6.95;;
36315;SDS011;22343;50.820;2.666;2023-06-05T15:22:57;13.05;;;6.68;;
36315;SDS011;22343;50.820;2.666;2023-06-05T15:25:42;12.32;;;7.63;;
36315;SDS011;22343;50.820;2.666;2023-06-05T15:28:28;11.20;;;6.45;;
36315;SDS011;22343;50.820;2.666;2023-06-05T15:31:12;9.00;;;7.25;;
36315;SDS011;22343;50.820;2.666;2023-06-05T15:33:57;8.40;;;6.15;;
36315;SDS011;22343;50.820;2.666;2023-06-05T15:36:43;9.57;;;6.85;;
36315;SDS011;22343;50.820;2.666;2023-06-05T15:39:28;9.63;;;6.10;;
36315;SDS011;22343;50.820;2.666;2023-06-05T15:42:17;6.53;;;5.13;;
36315;SDS011;22343;50.820;2.666;2023-06-05T15:45:08;7.18;;;5.57;;
36315;SDS011;22343;50.820;2.666;2023-06-05T15:47:54;6.95;;;5.32;;
36315;SDS011;22343;50.820;2.666;2023-06-05T15:50:39;7.50;;;5.40;;
36315;SDS011;22343;50.820;2.666;2023-06-05T15:53:25;7.53;;;4.38;;
36315;SDS011;22343;50.820;2.666;2023-06-05T15:56:10;5.70;;;5.03;;
36315;SDS011;22343;50.820;2.666;2023-06-05T15:58:56;6.50;;;4.90;;
36315;SDS011;22343;50.820;2.666;2023-06-05T16:01:41;8.93;;;5.53;;
36315;SDS011;22343;50.820;2.666;2023-06-05T16:04:27;10.55;;;6.43;;
36315;SDS011;22343;50.820;2.666;2023-06-05T16:07:12;7.22;;;4.82;;
36315;SDS011;22343;50.820;2.666;2023-06-05T16:09:57;7.50;;;5.03;;
36315;SDS011;22343;50.820;2.666;2023-06-05T16:12:42;8.00;;;5.60;;
36315;SDS011;22343;50.820;2.666;2023-06-05T16:15:28;7.60;;;5.90;;
36315;SDS011;22343;50.820;2.666;2023-06-05T16:18:14;8.63;;;5.88;;
36315;SDS011;22343;50.820;2.666;2023-06-05T16:21:00;7.15;;;5.68;;
36315;SDS011;22343;50.820;2.666;2023-06-05T16:23:44;9.75;;;5.95;;
36315;SDS011;22343;50.820;2.666;2023-06-05T16:26:30;8.15;;;5.35;;
36315;SDS011;22343;50.820;2.666;2023-06-05T16:29:16;7.53;;;6.03;;
36315;SDS011;22343;50.820;2.666;2023-06-05T16:32:02;7.88;;;5.38;;
36315;SDS011;22343;50.820;2.666;2023-06-05T16:34:48;8.82;;;6.25;;
36315;SDS011;22343;50.820;2.666;2023-06-05T16:37:34;9.80;;;6.75;;
36315;SDS011;22343;50.820;2.666;2023-06-05T16:40:19;10.07;;;5.90;;
36315;SDS011;22343;50.820;2.666;2023-06-05T16:43:05;10.75;;;6.38;;
36315;SDS011;22343;50.820;2.666;2023-06-05T16:45:51;9.50;;;6.28;;
36315;SDS011;22343;50.820;2.666;2023-06-05T16:48:40;7.97;;;5.47;;
36315;SDS011;22343;50.820;2.666;2023-06-05T16:51:25;8.02;;;5.57;;
36315;SDS011;22343;50.820;2.666;2023-06-05T16:54:11;9.85;;;6.10;;
36315;SDS011;22343;50.820;2.666;2023-06-05T16:56:57;9.07;;;5.38;;